sensor_id;sensor_type;location;lat;lon;timestamp;temperature;humidity
75786;DHT22;64402;44.708;37.644;2023-05-16T00:01:36;10.94;84.54
75786;DHT22;64402;44.708;37.644;2023-05-16T00:04:08;10.88;84.61
75786;DHT22;64402;44.708;37.644;2023-05-16T00:06:39;10.82;85.36
75786;DHT22;64402;44.708;37.644;2023-05-16T00:09:11;10.83;85.81
75786;DHT22;64402;44.708;37.644;2023-05-16T00:11:42;10.82;85.50
75786;DHT22;64402;44.708;37.644;2023-05-16T00:14:13;10.81;85.34
75786;DHT22;64402;44.708;37.644;2023-05-16T00:16:45;10.79;85.47
75786;DHT22;64402;44.708;37.644;2023-05-16T00:19:17;10.78;84.79
75786;DHT22;64402;44.708;37.644;2023-05-16T00:21:48;10.75;85.20
75786;DHT22;64402;44.708;37.644;2023-05-16T00:24:20;10.75;84.98
75786;DHT22;64402;44.708;37.644;2023-05-16T00:26:52;10.79;85.01
75786;DHT22;64402;44.708;37.644;2023-05-16T00:29:23;10.78;84.43
75786;DHT22;64402;44.708;37.644;2023-05-16T00:31:54;10.71;84.46
75786;DHT22;64402;44.708;37.644;2023-05-16T00:34:26;10.67;84.61
75786;DHT22;64402;44.708;37.644;2023-05-16T00:36:58;10.66;85.04
75786;DHT22;64402;44.708;37.644;2023-05-16T00:39:29;10.64;85.49
75786;DHT22;64402;44.708;37.644;2023-05-16T00:42:00;10.64;85.82
75786;DHT22;64402;44.708;37.644;2023-05-16T00:44:32;10.60;86.41
75786;DHT22;64402;44.708;37.644;2023-05-16T00:47:04;10.63;85.72
75786;DHT22;64402;44.708;37.644;2023-05-16T00:49:35;10.58;85.47
75786;DHT22;64402;44.708;37.644;2023-05-16T00:52:07;10.58;85.38
75786;DHT22;64402;44.708;37.644;2023-05-16T00:54:39;10.58;85.28
75786;DHT22;64402;44.708;37.644;2023-05-16T00:57:10;10.54;85.26
75786;DHT22;64402;44.708;37.644;2023-05-16T00:59:44;10.53;85.60
75786;DHT22;64402;44.708;37.644;2023-05-16T01:02:16;10.50;84.62
75786;DHT22;64402;44.708;37.644;2023-05-16T01:04:48;10.43;85.06
75786;DHT22;64402;44.708;37.644;2023-05-16T01:07:21;10.41;84.64
75786;DHT22;64402;44.708;37.644;2023-05-16T01:09:53;10.43;85.57
75786;DHT22;64402;44.708;37.644;2023-05-16T01:17:55;10.28;85.94
75786;DHT22;64402;44.708;37.644;2023-05-16T01:20:52;10.25;86.15
75786;DHT22;64402;44.708;37.644;2023-05-16T01:26:42;10.22;85.64
75786;DHT22;64402;44.708;37.644;2023-05-16T01:29:15;10.26;85.75
75786;DHT22;64402;44.708;37.644;2023-05-16T01:31:47;10.23;85.16
75786;DHT22;64402;44.708;37.644;2023-05-16T01:34:18;10.19;84.87
75786;DHT22;64402;44.708;37.644;2023-05-16T01:39:29;10.15;85.40
75786;DHT22;64402;44.708;37.644;2023-05-16T01:42:07;10.14;85.58
75786;DHT22;64402;44.708;37.644;2023-05-16T01:47:18;10.08;86.12
75786;DHT22;64402;44.708;37.644;2023-05-16T01:49:57;10.05;85.67
75786;DHT22;64402;44.708;37.644;2023-05-16T01:52:35;10.01;85.84
75786;DHT22;64402;44.708;37.644;2023-05-16T01:55:10;9.97;86.09
75786;DHT22;64402;44.708;37.644;2023-05-16T01:57:44;9.95;86.51
75786;DHT22;64402;44.708;37.644;2023-05-16T02:00:16;9.95;86.54
75786;DHT22;64402;44.708;37.644;2023-05-16T02:02:47;9.96;87.01
75786;DHT22;64402;44.708;37.644;2023-05-16T02:05:19;9.97;87.46
75786;DHT22;64402;44.708;37.644;2023-05-16T02:07:50;10.06;86.78
75786;DHT22;64402;44.708;37.644;2023-05-16T02:10:23;10.12;86.61
75786;DHT22;64402;44.708;37.644;2023-05-16T02:12:54;10.14;86.06
75786;DHT22;64402;44.708;37.644;2023-05-16T02:15:26;10.14;85.64
75786;DHT22;64402;44.708;37.644;2023-05-16T02:17:57;10.14;85.59
75786;DHT22;64402;44.708;37.644;2023-05-16T02:20:28;10.20;85.20
75786;DHT22;64402;44.708;37.644;2023-05-16T02:23:00;10.25;84.96
75786;DHT22;64402;44.708;37.644;2023-05-16T02:25:33;10.26;84.43
75786;DHT22;64402;44.708;37.644;2023-05-16T02:28:04;10.33;84.87
75786;DHT22;64402;44.708;37.644;2023-05-16T02:30:36;10.34;84.25
75786;DHT22;64402;44.708;37.644;2023-05-16T02:33:09;10.37;84.42
75786;DHT22;64402;44.708;37.644;2023-05-16T02:35:41;10.43;84.07
75786;DHT22;64402;44.708;37.644;2023-05-16T02:38:12;10.53;84.32
75786;DHT22;64402;44.708;37.644;2023-05-16T02:40:47;10.59;84.42
75786;DHT22;64402;44.708;37.644;2023-05-16T02:43:19;10.71;84.50
75786;DHT22;64402;44.708;37.644;2023-05-16T02:45:50;10.88;83.79
75786;DHT22;64402;44.708;37.644;2023-05-16T02:48:23;11.00;83.62
75786;DHT22;64402;44.708;37.644;2023-05-16T02:50:54;11.11;83.32
75786;DHT22;64402;44.708;37.644;2023-05-16T02:53:25;11.13;82.97
75786;DHT22;64402;44.708;37.644;2023-05-16T02:55:57;11.19;82.75
75786;DHT22;64402;44.708;37.644;2023-05-16T02:58:28;11.30;82.83
75786;DHT22;64402;44.708;37.644;2023-05-16T03:01:00;11.42;83.22
75786;DHT22;64402;44.708;37.644;2023-05-16T03:03:38;11.53;82.84
75786;DHT22;64402;44.708;37.644;2023-05-16T03:06:09;11.60;82.47
75786;DHT22;64402;44.708;37.644;2023-05-16T03:08:41;11.66;82.46
75786;DHT22;64402;44.708;37.644;2023-05-16T03:11:13;11.71;83.30
75786;DHT22;64402;44.708;37.644;2023-05-16T03:13:44;11.77;83.76
75786;DHT22;64402;44.708;37.644;2023-05-16T03:16:16;11.90;83.81
75786;DHT22;64402;44.708;37.644;2023-05-16T03:18:48;11.92;85.05
75786;DHT22;64402;44.708;37.644;2023-05-16T03:21:19;11.99;84.87
75786;DHT22;64402;44.708;37.644;2023-05-16T03:23:50;12.12;84.43
75786;DHT22;64402;44.708;37.644;2023-05-16T03:26:22;12.20;84.42
75786;DHT22;64402;44.708;37.644;2023-05-16T03:28:54;12.31;83.87
75786;DHT22;64402;44.708;37.644;2023-05-16T03:31:26;12.36;84.22
75786;DHT22;64402;44.708;37.644;2023-05-16T03:33:57;12.37;84.83
75786;DHT22;64402;44.708;37.644;2023-05-16T03:36:29;12.32;84.40
75786;DHT22;64402;44.708;37.644;2023-05-16T03:39:01;12.30;84.01
75786;DHT22;64402;44.708;37.644;2023-05-16T03:41:33;12.32;84.37
75786;DHT22;64402;44.708;37.644;2023-05-16T03:44:05;12.31;84.36
75786;DHT22;64402;44.708;37.644;2023-05-16T03:46:36;12.30;83.72
75786;DHT22;64402;44.708;37.644;2023-05-16T03:49:08;12.31;84.10
75786;DHT22;64402;44.708;37.644;2023-05-16T03:51:39;12.31;84.56
75786;DHT22;64402;44.708;37.644;2023-05-16T03:54:11;12.29;85.13
75786;DHT22;64402;44.708;37.644;2023-05-16T03:56:42;12.32;85.24
75786;DHT22;64402;44.708;37.644;2023-05-16T03:59:14;12.41;85.26
75786;DHT22;64402;44.708;37.644;2023-05-16T04:01:46;12.50;84.91
75786;DHT22;64402;44.708;37.644;2023-05-16T04:04:17;12.56;85.01
75786;DHT22;64402;44.708;37.644;2023-05-16T04:06:49;12.64;84.76
75786;DHT22;64402;44.708;37.644;2023-05-16T04:09:20;12.74;84.39
75786;DHT22;64402;44.708;37.644;2023-05-16T04:11:52;12.81;84.46
75786;DHT22;64402;44.708;37.644;2023-05-16T04:14:26;12.85;85.01
75786;DHT22;64402;44.708;37.644;2023-05-16T04:16:57;12.93;84.55
75786;DHT22;64402;44.708;37.644;2023-05-16T04:19:29;13.02;84.13
75786;DHT22;64402;44.708;37.644;2023-05-16T04:22:04;13.16;83.99
75786;DHT22;64402;44.708;37.644;2023-05-16T04:24:35;13.30;83.41
75786;DHT22;64402;44.708;37.644;2023-05-16T04:27:07;13.41;83.73
75786;DHT22;64402;44.708;37.644;2023-05-16T04:29:39;13.55;83.93
75786;DHT22;64402;44.708;37.644;2023-05-16T04:32:10;13.63;83.67
75786;DHT22;64402;44.708;37.644;2023-05-16T04:34:42;13.77;83.64
75786;DHT22;64402;44.708;37.644;2023-05-16T04:37:16;13.84;82.71
75786;DHT22;64402;44.708;37.644;2023-05-16T04:39:48;13.98;81.83
75786;DHT22;64402;44.708;37.644;2023-05-16T04:42:21;14.14;81.27
75786;DHT22;64402;44.708;37.644;2023-05-16T04:44:53;14.29;79.90
75786;DHT22;64402;44.708;37.644;2023-05-16T04:47:24;14.42;78.94
75786;DHT22;64402;44.708;37.644;2023-05-16T04:49:56;14.59;78.52
75786;DHT22;64402;44.708;37.644;2023-05-16T04:52:28;14.68;76.90
75786;DHT22;64402;44.708;37.644;2023-05-16T04:55:00;14.81;76.61
75786;DHT22;64402;44.708;37.644;2023-05-16T04:57:32;14.96;76.46
75786;DHT22;64402;44.708;37.644;2023-05-16T05:00:04;15.07;76.42
75786;DHT22;64402;44.708;37.644;2023-05-16T05:02:38;15.23;76.08
75786;DHT22;64402;44.708;37.644;2023-05-16T05:05:10;15.38;76.28
75786;DHT22;64402;44.708;37.644;2023-05-16T05:07:42;15.52;75.75
75786;DHT22;64402;44.708;37.644;2023-05-16T05:10:13;15.62;76.88
75786;DHT22;64402;44.708;37.644;2023-05-16T05:12:45;15.68;76.95
75786;DHT22;64402;44.708;37.644;2023-05-16T05:15:16;15.78;77.00
75786;DHT22;64402;44.708;37.644;2023-05-16T05:17:49;15.85;77.37
75786;DHT22;64402;44.708;37.644;2023-05-16T05:20:20;15.95;77.34
75786;DHT22;64402;44.708;37.644;2023-05-16T05:22:52;16.01;77.18
75786;DHT22;64402;44.708;37.644;2023-05-16T05:25:23;16.11;76.48
75786;DHT22;64402;44.708;37.644;2023-05-16T05:27:54;16.04;76.63
75786;DHT22;64402;44.708;37.644;2023-05-16T05:30:26;16.11;76.60
75786;DHT22;64402;44.708;37.644;2023-05-16T05:32:57;16.31;76.45
75786;DHT22;64402;44.708;37.644;2023-05-16T05:35:28;16.41;75.68
75786;DHT22;64402;44.708;37.644;2023-05-16T05:38:00;16.55;76.30
75786;DHT22;64402;44.708;37.644;2023-05-16T05:40:31;16.61;75.63
75786;DHT22;64402;44.708;37.644;2023-05-16T05:43:03;16.67;75.86
75786;DHT22;64402;44.708;37.644;2023-05-16T05:45:36;16.72;76.14
75786;DHT22;64402;44.708;37.644;2023-05-16T05:48:07;16.77;75.84
75786;DHT22;64402;44.708;37.644;2023-05-16T05:50:39;16.82;75.41
75786;DHT22;64402;44.708;37.644;2023-05-16T05:53:11;16.85;75.89
75786;DHT22;64402;44.708;37.644;2023-05-16T05:55:42;16.87;76.18
75786;DHT22;64402;44.708;37.644;2023-05-16T05:58:14;16.89;75.42
75786;DHT22;64402;44.708;37.644;2023-05-16T06:00:45;17.02;75.89
75786;DHT22;64402;44.708;37.644;2023-05-16T06:03:17;17.05;74.60
75786;DHT22;64402;44.708;37.644;2023-05-16T06:05:51;17.18;74.97
75786;DHT22;64402;44.708;37.644;2023-05-16T06:08:22;17.11;74.56
75786;DHT22;64402;44.708;37.644;2023-05-16T06:10:53;17.21;75.33
75786;DHT22;64402;44.708;37.644;2023-05-16T06:13:25;17.17;74.31
75786;DHT22;64402;44.708;37.644;2023-05-16T06:15:56;17.30;74.28
75786;DHT22;64402;44.708;37.644;2023-05-16T06:18:28;17.33;73.91
75786;DHT22;64402;44.708;37.644;2023-05-16T06:20:59;17.23;74.31
75786;DHT22;64402;44.708;37.644;2023-05-16T06:23:31;17.48;74.26
75786;DHT22;64402;44.708;37.644;2023-05-16T06:26:03;17.60;73.94
75786;DHT22;64402;44.708;37.644;2023-05-16T06:28:34;17.54;72.92
75786;DHT22;64402;44.708;37.644;2023-05-16T06:31:06;17.50;74.09
75786;DHT22;64402;44.708;37.644;2023-05-16T06:33:38;17.52;73.32
75786;DHT22;64402;44.708;37.644;2023-05-16T06:36:09;17.54;73.35
75786;DHT22;64402;44.708;37.644;2023-05-16T06:38:40;17.49;74.25
75786;DHT22;64402;44.708;37.644;2023-05-16T06:41:12;17.54;73.94
75786;DHT22;64402;44.708;37.644;2023-05-16T06:43:43;17.61;73.85
75786;DHT22;64402;44.708;37.644;2023-05-16T06:46:15;17.74;73.95
75786;DHT22;64402;44.708;37.644;2023-05-16T06:48:46;17.92;72.57
75786;DHT22;64402;44.708;37.644;2023-05-16T06:51:18;18.10;72.74
75786;DHT22;64402;44.708;37.644;2023-05-16T06:53:49;18.34;71.26
75786;DHT22;64402;44.708;37.644;2023-05-16T06:56:20;18.42;71.47
75786;DHT22;64402;44.708;37.644;2023-05-16T06:58:52;18.44;70.70
75786;DHT22;64402;44.708;37.644;2023-05-16T07:01:23;18.47;70.88
75786;DHT22;64402;44.708;37.644;2023-05-16T07:03:57;18.47;71.17
75786;DHT22;64402;44.708;37.644;2023-05-16T07:06:28;18.53;71.78
75786;DHT22;64402;44.708;37.644;2023-05-16T07:09:00;18.49;72.00
75786;DHT22;64402;44.708;37.644;2023-05-16T07:11:32;18.54;72.06
75786;DHT22;64402;44.708;37.644;2023-05-16T07:14:03;18.64;71.61
75786;DHT22;64402;44.708;37.644;2023-05-16T07:16:35;18.58;71.54
75786;DHT22;64402;44.708;37.644;2023-05-16T07:19:06;18.77;70.84
75786;DHT22;64402;44.708;37.644;2023-05-16T07:21:38;18.63;71.29
75786;DHT22;64402;44.708;37.644;2023-05-16T07:24:09;18.74;71.40
75786;DHT22;64402;44.708;37.644;2023-05-16T07:26:41;18.85;70.16
75786;DHT22;64402;44.708;37.644;2023-05-16T07:29:12;18.93;70.13
75786;DHT22;64402;44.708;37.644;2023-05-16T07:31:44;19.09;69.61
75786;DHT22;64402;44.708;37.644;2023-05-16T07:34:15;19.17;69.47
75786;DHT22;64402;44.708;37.644;2023-05-16T07:36:47;19.33;68.71
75786;DHT22;64402;44.708;37.644;2023-05-16T07:39:18;19.31;68.96
75786;DHT22;64402;44.708;37.644;2023-05-16T07:41:50;19.36;67.78
75786;DHT22;64402;44.708;37.644;2023-05-16T07:44:21;19.35;67.94
75786;DHT22;64402;44.708;37.644;2023-05-16T07:46:53;19.27;69.05
75786;DHT22;64402;44.708;37.644;2023-05-16T07:49:24;19.50;67.72
75786;DHT22;64402;44.708;37.644;2023-05-16T07:51:56;19.74;68.46
75786;DHT22;64402;44.708;37.644;2023-05-16T07:54:27;19.71;67.55
75786;DHT22;64402;44.708;37.644;2023-05-16T07:56:59;19.86;67.48
75786;DHT22;64402;44.708;37.644;2023-05-16T07:59:30;19.74;67.39
75786;DHT22;64402;44.708;37.644;2023-05-16T08:02:02;19.52;67.49
75786;DHT22;64402;44.708;37.644;2023-05-16T08:04:33;19.33;68.91
75786;DHT22;64402;44.708;37.644;2023-05-16T08:07:04;19.48;68.13
75786;DHT22;64402;44.708;37.644;2023-05-16T08:09:36;19.44;68.10
75786;DHT22;64402;44.708;37.644;2023-05-16T08:12:08;19.41;67.92
75786;DHT22;64402;44.708;37.644;2023-05-16T08:14:39;19.15;69.20
75786;DHT22;64402;44.708;37.644;2023-05-16T08:17:11;19.22;68.41
75786;DHT22;64402;44.708;37.644;2023-05-16T08:19:42;19.28;68.26
75786;DHT22;64402;44.708;37.644;2023-05-16T08:22:13;19.41;68.07
75786;DHT22;64402;44.708;37.644;2023-05-16T08:24:45;19.52;67.89
75786;DHT22;64402;44.708;37.644;2023-05-16T08:27:16;19.44;68.29
75786;DHT22;64402;44.708;37.644;2023-05-16T08:29:48;19.59;67.95
75786;DHT22;64402;44.708;37.644;2023-05-16T08:32:20;19.50;67.74
75786;DHT22;64402;44.708;37.644;2023-05-16T08:34:52;19.61;67.67
75786;DHT22;64402;44.708;37.644;2023-05-16T08:37:23;19.59;66.98
75786;DHT22;64402;44.708;37.644;2023-05-16T08:39:55;19.48;67.22
75786;DHT22;64402;44.708;37.644;2023-05-16T08:42:26;19.56;68.01
75786;DHT22;64402;44.708;37.644;2023-05-16T08:44:58;19.53;66.98
75786;DHT22;64402;44.708;37.644;2023-05-16T08:47:30;19.37;68.30
75786;DHT22;64402;44.708;37.644;2023-05-16T08:50:02;19.46;67.78
75786;DHT22;64402;44.708;37.644;2023-05-16T08:52:37;20.16;65.98
75786;DHT22;64402;44.708;37.644;2023-05-16T08:55:10;22.02;59.38
75786;DHT22;64402;44.708;37.644;2023-05-16T08:57:44;23.41;54.66
75786;DHT22;64402;44.708;37.644;2023-05-16T09:00:16;23.82;53.23
75786;DHT22;64402;44.708;37.644;2023-05-16T09:02:49;24.82;50.63
75786;DHT22;64402;44.708;37.644;2023-05-16T09:05:22;25.01;50.34
75786;DHT22;64402;44.708;37.644;2023-05-16T09:07:54;25.33;49.05
75786;DHT22;64402;44.708;37.644;2023-05-16T09:10:26;25.62;47.72
75786;DHT22;64402;44.708;37.644;2023-05-16T09:12:57;26.28;46.39
75786;DHT22;64402;44.708;37.644;2023-05-16T09:15:32;25.74;47.54
75786;DHT22;64402;44.708;37.644;2023-05-16T09:18:04;25.73;47.69
75786;DHT22;64402;44.708;37.644;2023-05-16T09:20:47;26.22;46.41
75786;DHT22;64402;44.708;37.644;2023-05-16T09:23:23;26.21;46.43
75786;DHT22;64402;44.708;37.644;2023-05-16T09:25:56;26.22;45.14
75786;DHT22;64402;44.708;37.644;2023-05-16T09:28:28;26.36;46.47
75786;DHT22;64402;44.708;37.644;2023-05-16T09:31:25;27.41;43.40
75786;DHT22;64402;44.708;37.644;2023-05-16T09:33:59;27.25;44.16
75786;DHT22;64402;44.708;37.644;2023-05-16T09:36:33;27.11;43.67
75786;DHT22;64402;44.708;37.644;2023-05-16T09:39:06;27.65;42.91
75786;DHT22;64402;44.708;37.644;2023-05-16T09:41:39;27.13;42.71
75786;DHT22;64402;44.708;37.644;2023-05-16T09:44:11;27.16;42.62
75786;DHT22;64402;44.708;37.644;2023-05-16T09:46:44;26.71;44.03
75786;DHT22;64402;44.708;37.644;2023-05-16T09:49:17;26.87;43.34
75786;DHT22;64402;44.708;37.644;2023-05-16T09:51:50;27.26;43.16
75786;DHT22;64402;44.708;37.644;2023-05-16T09:54:31;27.26;42.72
75786;DHT22;64402;44.708;37.644;2023-05-16T09:57:04;27.06;43.36
75786;DHT22;64402;44.708;37.644;2023-05-16T09:59:37;27.07;42.92
75786;DHT22;64402;44.708;37.644;2023-05-16T10:02:12;27.29;43.01
75786;DHT22;64402;44.708;37.644;2023-05-16T10:04:45;28.17;41.39
75786;DHT22;64402;44.708;37.644;2023-05-16T10:07:19;28.49;40.01
75786;DHT22;64402;44.708;37.644;2023-05-16T10:09:54;28.83;39.15
75786;DHT22;64402;44.708;37.644;2023-05-16T10:12:29;28.98;38.83
75786;DHT22;64402;44.708;37.644;2023-05-16T10:15:05;28.13;40.59
75786;DHT22;64402;44.708;37.644;2023-05-16T10:17:39;27.95;41.52
75786;DHT22;64402;44.708;37.644;2023-05-16T10:20:16;27.95;41.66
75786;DHT22;64402;44.708;37.644;2023-05-16T10:22:51;28.12;40.92
75786;DHT22;64402;44.708;37.644;2023-05-16T10:25:35;29.30;38.53
75786;DHT22;64402;44.708;37.644;2023-05-16T10:28:10;29.79;37.01
75786;DHT22;64402;44.708;37.644;2023-05-16T10:30:45;29.87;36.94
75786;DHT22;64402;44.708;37.644;2023-05-16T10:33:19;30.34;36.36
75786;DHT22;64402;44.708;37.644;2023-05-16T10:35:52;30.13;37.08
75786;DHT22;64402;44.708;37.644;2023-05-16T10:38:24;30.27;36.27
75786;DHT22;64402;44.708;37.644;2023-05-16T10:40:59;30.46;36.36
75786;DHT22;64402;44.708;37.644;2023-05-16T10:43:33;30.81;35.29
75786;DHT22;64402;44.708;37.644;2023-05-16T10:46:09;30.76;35.16
75786;DHT22;64402;44.708;37.644;2023-05-16T10:48:41;30.63;36.02
75786;DHT22;64402;44.708;37.644;2023-05-16T10:51:33;30.27;36.57
75786;DHT22;64402;44.708;37.644;2023-05-16T10:54:10;30.57;35.86
75786;DHT22;64402;44.708;37.644;2023-05-16T10:56:54;30.15;36.53
75786;DHT22;64402;44.708;37.644;2023-05-16T10:59:29;29.82;36.91
75786;DHT22;64402;44.708;37.644;2023-05-16T11:02:28;30.02;38.03
75786;DHT22;64402;44.708;37.644;2023-05-16T11:05:01;31.23;35.18
75786;DHT22;64402;44.708;37.644;2023-05-16T11:07:35;31.79;34.21
75786;DHT22;64402;44.708;37.644;2023-05-16T11:10:15;32.11;32.89
75786;DHT22;64402;44.708;37.644;2023-05-16T11:12:49;31.56;33.86
75786;DHT22;64402;44.708;37.644;2023-05-16T11:15:30;30.40;36.59
75786;DHT22;64402;44.708;37.644;2023-05-16T11:18:08;30.87;35.64
75786;DHT22;64402;44.708;37.644;2023-05-16T11:20:41;30.37;36.59
75786;DHT22;64402;44.708;37.644;2023-05-16T11:25:55;30.67;35.50
75786;DHT22;64402;44.708;37.644;2023-05-16T11:28:28;30.60;35.90
75786;DHT22;64402;44.708;37.644;2023-05-16T11:31:00;30.93;35.14
75786;DHT22;64402;44.708;37.644;2023-05-16T11:33:40;30.94;34.57
75786;DHT22;64402;44.708;37.644;2023-05-16T11:36:12;31.58;34.32
75786;DHT22;64402;44.708;37.644;2023-05-16T11:38:45;31.98;33.33
75786;DHT22;64402;44.708;37.644;2023-05-16T11:41:18;31.48;34.34
75786;DHT22;64402;44.708;37.644;2023-05-16T11:43:51;32.12;32.73
75786;DHT22;64402;44.708;37.644;2023-05-16T11:46:25;31.73;33.44
75786;DHT22;64402;44.708;37.644;2023-05-16T11:48:59;32.09;32.96
75786;DHT22;64402;44.708;37.644;2023-05-16T11:51:32;31.21;34.03
75786;DHT22;64402;44.708;37.644;2023-05-16T11:54:06;30.63;35.68
75786;DHT22;64402;44.708;37.644;2023-05-16T11:56:40;31.04;35.52
75786;DHT22;64402;44.708;37.644;2023-05-16T11:59:16;31.64;34.00
75786;DHT22;64402;44.708;37.644;2023-05-16T12:01:49;31.64;34.25
75786;DHT22;64402;44.708;37.644;2023-05-16T12:04:21;31.41;34.41
75786;DHT22;64402;44.708;37.644;2023-05-16T12:06:59;31.34;34.21
75786;DHT22;64402;44.708;37.644;2023-05-16T12:09:32;31.64;33.93
75786;DHT22;64402;44.708;37.644;2023-05-16T12:12:06;31.87;33.43
75786;DHT22;64402;44.708;37.644;2023-05-16T12:14:39;31.40;34.52
75786;DHT22;64402;44.708;37.644;2023-05-16T12:17:12;31.23;35.21
75786;DHT22;64402;44.708;37.644;2023-05-16T12:19:44;30.34;36.76
75786;DHT22;64402;44.708;37.644;2023-05-16T12:22:18;30.07;36.98
75786;DHT22;64402;44.708;37.644;2023-05-16T12:24:52;29.89;37.55
75786;DHT22;64402;44.708;37.644;2023-05-16T12:27:27;30.59;35.66
75786;DHT22;64402;44.708;37.644;2023-05-16T12:30:09;30.24;36.84
75786;DHT22;64402;44.708;37.644;2023-05-16T12:32:51;29.52;38.26
75786;DHT22;64402;44.708;37.644;2023-05-16T12:35:25;29.74;38.05
75786;DHT22;64402;44.708;37.644;2023-05-16T12:38:05;29.78;38.45
75786;DHT22;64402;44.708;37.644;2023-05-16T12:40:41;29.07;39.58
75786;DHT22;64402;44.708;37.644;2023-05-16T12:43:15;28.41;41.12
75786;DHT22;64402;44.708;37.644;2023-05-16T12:45:56;28.06;41.78
75786;DHT22;64402;44.708;37.644;2023-05-16T12:48:36;28.37;41.11
75786;DHT22;64402;44.708;37.644;2023-05-16T12:51:12;29.47;38.76
75786;DHT22;64402;44.708;37.644;2023-05-16T12:53:47;30.30;37.01
75786;DHT22;64402;44.708;37.644;2023-05-16T12:56:20;29.03;39.51
75786;DHT22;64402;44.708;37.644;2023-05-16T12:58:52;29.52;38.63
75786;DHT22;64402;44.708;37.644;2023-05-16T13:01:26;29.95;37.68
75786;DHT22;64402;44.708;37.644;2023-05-16T13:03:58;30.00;37.79
75786;DHT22;64402;44.708;37.644;2023-05-16T13:06:31;29.24;39.05
75786;DHT22;64402;44.708;37.644;2023-05-16T13:09:04;29.30;39.22
75786;DHT22;64402;44.708;37.644;2023-05-16T13:11:41;29.93;37.76
75786;DHT22;64402;44.708;37.644;2023-05-16T13:14:14;29.53;38.98
75786;DHT22;64402;44.708;37.644;2023-05-16T13:17:05;29.88;37.95
75786;DHT22;64402;44.708;37.644;2023-05-16T13:19:38;30.30;36.65
75786;DHT22;64402;44.708;37.644;2023-05-16T13:22:14;30.31;37.34
75786;DHT22;64402;44.708;37.644;2023-05-16T13:24:50;30.34;37.13
75786;DHT22;64402;44.708;37.644;2023-05-16T13:27:25;30.62;36.35
75786;DHT22;64402;44.708;37.644;2023-05-16T13:30:05;30.17;37.50
75786;DHT22;64402;44.708;37.644;2023-05-16T13:32:57;30.44;37.09
75786;DHT22;64402;44.708;37.644;2023-05-16T13:35:31;29.54;38.69
75786;DHT22;64402;44.708;37.644;2023-05-16T13:38:04;29.52;38.99
75786;DHT22;64402;44.708;37.644;2023-05-16T13:40:37;29.77;38.58
75786;DHT22;64402;44.708;37.644;2023-05-16T13:43:10;29.93;38.07
75786;DHT22;64402;44.708;37.644;2023-05-16T13:45:45;30.36;37.48
75786;DHT22;64402;44.708;37.644;2023-05-16T13:48:18;29.74;38.35
75786;DHT22;64402;44.708;37.644;2023-05-16T13:50:53;29.51;39.33
75786;DHT22;64402;44.708;37.644;2023-05-16T13:53:26;29.98;38.12
75786;DHT22;64402;44.708;37.644;2023-05-16T13:56:02;29.76;38.72
75786;DHT22;64402;44.708;37.644;2023-05-16T13:58:35;29.63;38.68
75786;DHT22;64402;44.708;37.644;2023-05-16T14:01:08;30.03;37.74
75786;DHT22;64402;44.708;37.644;2023-05-16T14:03:41;29.33;39.44
75786;DHT22;64402;44.708;37.644;2023-05-16T14:06:14;29.81;38.14
75786;DHT22;64402;44.708;37.644;2023-05-16T14:08:47;30.18;37.45
75786;DHT22;64402;44.708;37.644;2023-05-16T14:11:19;30.13;37.56
75786;DHT22;64402;44.708;37.644;2023-05-16T14:13:57;30.10;37.52
75786;DHT22;64402;44.708;37.644;2023-05-16T14:16:34;29.70;38.84
75786;DHT22;64402;44.708;37.644;2023-05-16T14:19:06;29.35;39.19
75786;DHT22;64402;44.708;37.644;2023-05-16T14:21:39;28.56;40.89
75786;DHT22;64402;44.708;37.644;2023-05-16T14:24:12;28.31;41.81
75786;DHT22;64402;44.708;37.644;2023-05-16T14:26:44;28.11;42.23
75786;DHT22;64402;44.708;37.644;2023-05-16T14:29:18;29.13;39.82
75786;DHT22;64402;44.708;37.644;2023-05-16T14:31:51;29.43;39.31
75786;DHT22;64402;44.708;37.644;2023-05-16T14:34:25;29.21;39.98
75786;DHT22;64402;44.708;37.644;2023-05-16T14:36:59;28.83;40.74
75786;DHT22;64402;44.708;37.644;2023-05-16T14:39:32;29.14;39.89
75786;DHT22;64402;44.708;37.644;2023-05-16T14:42:04;29.74;38.41
75786;DHT22;64402;44.708;37.644;2023-05-16T14:44:37;30.00;37.75
75786;DHT22;64402;44.708;37.644;2023-05-16T14:47:10;29.50;38.62
75786;DHT22;64402;44.708;37.644;2023-05-16T14:49:43;29.17;40.20
75786;DHT22;64402;44.708;37.644;2023-05-16T14:52:16;28.77;40.32
75786;DHT22;64402;44.708;37.644;2023-05-16T14:54:51;29.15;40.06
75786;DHT22;64402;44.708;37.644;2023-05-16T14:57:25;29.17;40.26
75786;DHT22;64402;44.708;37.644;2023-05-16T14:59:59;29.47;39.22
75786;DHT22;64402;44.708;37.644;2023-05-16T15:02:32;29.39;39.63
75786;DHT22;64402;44.708;37.644;2023-05-16T15:05:05;29.36;39.22
75786;DHT22;64402;44.708;37.644;2023-05-16T15:07:41;29.76;38.62
75786;DHT22;64402;44.708;37.644;2023-05-16T15:10:15;29.45;39.52
75786;DHT22;64402;44.708;37.644;2023-05-16T15:12:48;29.57;38.98
75786;DHT22;64402;44.708;37.644;2023-05-16T15:15:21;29.87;38.37
75786;DHT22;64402;44.708;37.644;2023-05-16T15:17:53;29.63;38.96
75786;DHT22;64402;44.708;37.644;2023-05-16T15:20:27;29.39;39.29
75786;DHT22;64402;44.708;37.644;2023-05-16T15:23:03;29.15;39.92
75786;DHT22;64402;44.708;37.644;2023-05-16T15:25:36;29.03;40.41
75786;DHT22;64402;44.708;37.644;2023-05-16T15:28:09;28.43;41.78
75786;DHT22;64402;44.708;37.644;2023-05-16T15:30:41;28.86;41.08
75786;DHT22;64402;44.708;37.644;2023-05-16T15:33:07;29.24;40.60
75786;DHT22;64402;44.708;37.644;2023-05-16T15:35:33;29.50;39.72
75786;DHT22;64402;44.708;37.644;2023-05-16T15:37:59;29.47;39.93
75786;DHT22;64402;44.708;37.644;2023-05-16T15:40:25;29.07;40.91
75786;DHT22;64402;44.708;37.644;2023-05-16T15:42:51;29.14;40.66
75786;DHT22;64402;44.708;37.644;2023-05-16T15:45:18;28.78;41.51
75786;DHT22;64402;44.708;37.644;2023-05-16T15:47:44;28.64;42.39
75786;DHT22;64402;44.708;37.644;2023-05-16T15:50:10;28.54;42.56
75786;DHT22;64402;44.708;37.644;2023-05-16T15:52:37;28.50;42.44
75786;DHT22;64402;44.708;37.644;2023-05-16T15:55:04;28.40;42.92
75786;DHT22;64402;44.708;37.644;2023-05-16T15:57:31;28.23;43.32
75786;DHT22;64402;44.708;37.644;2023-05-16T15:59:57;28.02;43.93
75786;DHT22;64402;44.708;37.644;2023-05-16T16:02:23;27.89;44.14
75786;DHT22;64402;44.708;37.644;2023-05-16T16:04:50;27.83;44.45
75786;DHT22;64402;44.708;37.644;2023-05-16T16:07:17;27.58;45.19